sensor_id;sensor_type;location;lat;lon;timestamp;pressure;altitude;pressure_sealevel;temperature;humidity
80124;BME280;69433;48.642;9.142;2023-06-01T00:00:48;97138.16;;;22.05;35.50
80124;BME280;69433;48.642;9.142;2023-06-01T00:03:15;97140.47;;;22.06;35.29
80124;BME280;69433;48.642;9.142;2023-06-01T00:05:40;97138.94;;;22.05;35.60
80124;BME280;69433;48.642;9.142;2023-06-01T00:08:05;97139.31;;;22.07;35.34
80124;BME280;69433;48.642;9.142;2023-06-01T00:10:31;97138.16;;;22.08;35.34
80124;BME280;69433;48.642;9.142;2023-06-01T00:12:56;97132.84;;;22.01;35.46
80124;BME280;69433;48.642;9.142;2023-06-01T00:15:22;97129.81;;;21.99;35.66
80124;BME280;69433;48.642;9.142;2023-06-01T00:17:47;97132.50;;;21.99;35.68
80124;BME280;69433;48.642;9.142;2023-06-01T00:20:17;97132.78;;;22.08;35.52
80124;BME280;69433;48.642;9.142;2023-06-01T00:22:42;97134.78;;;22.01;35.63
80124;BME280;69433;48.642;9.142;2023-06-01T00:25:08;97129.03;;;21.95;35.56
80124;BME280;69433;48.642;9.142;2023-06-01T00:27:33;97129.47;;;21.90;35.52
80124;BME280;69433;48.642;9.142;2023-06-01T00:29:59;97126.50;;;21.81;35.77
80124;BME280;69433;48.642;9.142;2023-06-01T00:32:24;97128.34;;;21.88;35.86
80124;BME280;69433;48.642;9.142;2023-06-01T00:34:50;97128.31;;;21.91;35.66
80124;BME280;69433;48.642;9.142;2023-06-01T00:37:15;97126.06;;;21.86;35.50
80124;BME280;69433;48.642;9.142;2023-06-01T00:39:40;97127.22;;;21.85;35.71
80124;BME280;69433;48.642;9.142;2023-06-01T00:42:06;97123.75;;;21.88;35.60
80124;BME280;69433;48.642;9.142;2023-06-01T00:44:31;97120.69;;;21.90;35.64
80124;BME280;69433;48.642;9.142;2023-06-01T00:46:59;97124.44;;;21.96;35.55
80124;BME280;69433;48.642;9.142;2023-06-01T00:49:25;97123.75;;;21.88;35.49
80124;BME280;69433;48.642;9.142;2023-06-01T00:51:51;97125.28;;;21.89;35.81
80124;BME280;69433;48.642;9.142;2023-06-01T00:54:16;97119.94;;;21.89;35.46
80124;BME280;69433;48.642;9.142;2023-06-01T00:56:42;97125.28;;;21.89;35.60
80124;BME280;69433;48.642;9.142;2023-06-01T00:59:07;97117.66;;;21.84;35.66
80124;BME280;69433;48.642;9.142;2023-06-01T01:01:33;97116.88;;;21.87;35.66
80124;BME280;69433;48.642;9.142;2023-06-01T01:03:59;97118.03;;;21.86;35.62
80124;BME280;69433;48.642;9.142;2023-06-01T01:06:45;97119.94;;;21.85;35.53
80124;BME280;69433;48.642;9.142;2023-06-01T01:12:24;97119.72;;;21.66;35.80
80124;BME280;69433;48.642;9.142;2023-06-01T01:15:41;97123.84;;;21.74;35.72
80124;BME280;69433;48.642;9.142;2023-06-01T01:18:14;97120.06;;;21.71;35.61
80124;BME280;69433;48.642;9.142;2023-06-01T01:20:44;97125.81;;;21.70;35.63
80124;BME280;69433;48.642;9.142;2023-06-01T01:23:26;97119.31;;;21.71;35.73
80124;BME280;69433;48.642;9.142;2023-06-01T01:26:25;97122.38;;;21.69;35.50
80124;BME280;69433;48.642;9.142;2023-06-01T01:29:20;97120.84;;;21.68;35.64
80124;BME280;69433;48.642;9.142;2023-06-01T01:31:54;97123.91;;;21.67;35.92
80124;BME280;69433;48.642;9.142;2023-06-01T01:34:21;97122.38;;;21.69;35.84
80124;BME280;69433;48.642;9.142;2023-06-01T01:36:47;97114.78;;;21.61;35.57
80124;BME280;69433;48.642;9.142;2023-06-01T01:39:12;97117.81;;;21.63;35.60
80124;BME280;69433;48.642;9.142;2023-06-01T01:41:38;97126.63;;;21.60;35.58
80124;BME280;69433;48.642;9.142;2023-06-01T01:44:03;97122.81;;;21.61;35.78
80124;BME280;69433;48.642;9.142;2023-06-01T01:46:32;97115.91;;;21.63;35.59
80124;BME280;69433;48.642;9.142;2023-06-01T01:49:12;97121.22;;;21.67;35.46
80124;BME280;69433;48.642;9.142;2023-06-01T01:51:45;97120.47;;;21.63;35.22
80124;BME280;69433;48.642;9.142;2023-06-01T01:54:14;97115.94;;;21.60;35.73
80124;BME280;69433;48.642;9.142;2023-06-01T01:56:40;97119.34;;;21.64;35.66
80124;BME280;69433;48.642;9.142;2023-06-01T01:59:06;97112.88;;;21.61;35.86
80124;BME280;69433;48.642;9.142;2023-06-01T02:01:32;97112.13;;;21.57;35.63
80124;BME280;69433;48.642;9.142;2023-06-01T02:04:02;97105.63;;;21.55;35.43
80124;BME280;69433;48.642;9.142;2023-06-01T02:06:28;97106.41;;;21.55;35.52
80124;BME280;69433;48.642;9.142;2023-06-01T02:08:53;97107.16;;;21.56;35.59
80124;BME280;69433;48.642;9.142;2023-06-01T02:11:19;97101.81;;;21.56;35.75
80124;BME280;69433;48.642;9.142;2023-06-01T02:13:44;97105.69;;;21.51;35.69
80124;BME280;69433;48.642;9.142;2023-06-01T02:16:09;97102.63;;;21.49;35.44
80124;BME280;69433;48.642;9.142;2023-06-01T02:18:34;97104.94;;;21.47;35.71
80124;BME280;69433;48.642;9.142;2023-06-01T02:21:04;97101.03;;;21.59;35.30
80124;BME280;69433;48.642;9.142;2023-06-01T02:23:29;97105.59;;;21.62;35.52
80124;BME280;69433;48.642;9.142;2023-06-01T02:25:54;97098.00;;;21.57;35.23
80124;BME280;69433;48.642;9.142;2023-06-01T02:28:22;97103.78;;;21.48;35.49
80124;BME280;69433;48.642;9.142;2023-06-01T02:30:47;97097.28;;;21.45;35.32
80124;BME280;69433;48.642;9.142;2023-06-01T02:33:13;97100.41;;;21.40;35.76
80124;BME280;69433;48.642;9.142;2023-06-01T02:35:38;97095.09;;;21.33;35.64
80124;BME280;69433;48.642;9.142;2023-06-01T02:38:05;97098.13;;;21.39;35.98
80124;BME280;69433;48.642;9.142;2023-06-01T02:40:30;97092.00;;;21.38;35.74
80124;BME280;69433;48.642;9.142;2023-06-01T02:42:55;97100.78;;;21.42;35.79
80124;BME280;69433;48.642;9.142;2023-06-01T02:45:21;97086.97;;;21.47;35.59
80124;BME280;69433;48.642;9.142;2023-06-01T02:47:46;97095.06;;;21.40;35.52
80124;BME280;69433;48.642;9.142;2023-06-01T02:50:11;97093.47;;;21.46;35.44
80124;BME280;69433;48.642;9.142;2023-06-01T02:52:37;97089.31;;;21.38;35.62
80124;BME280;69433;48.642;9.142;2023-06-01T02:55:09;97084.00;;;21.35;35.52
80124;BME280;69433;48.642;9.142;2023-06-01T02:57:34;97082.84;;;21.39;35.59
80124;BME280;69433;48.642;9.142;2023-06-01T03:00:00;97089.38;;;21.31;35.42
80124;BME280;69433;48.642;9.142;2023-06-01T03:02:25;97088.19;;;21.39;35.71
80124;BME280;69433;48.642;9.142;2023-06-01T03:04:51;97095.00;;;21.47;35.46
80124;BME280;69433;48.642;9.142;2023-06-01T03:07:17;97095.44;;;21.39;35.28
80124;BME280;69433;48.642;9.142;2023-06-01T03:09:43;97095.44;;;21.42;35.37
80124;BME280;69433;48.642;9.142;2023-06-01T03:12:09;97093.16;;;21.37;35.20
80124;BME280;69433;48.642;9.142;2023-06-01T03:14:35;97097.34;;;21.38;35.51
80124;BME280;69433;48.642;9.142;2023-06-01T03:17:02;97095.81;;;21.41;35.21
80124;BME280;69433;48.642;9.142;2023-06-01T03:19:28;97100.34;;;21.51;34.90
80124;BME280;69433;48.642;9.142;2023-06-01T03:21:59;97095.75;;;21.52;35.03
80124;BME280;69433;48.642;9.142;2023-06-01T03:24:24;97091.63;;;21.40;35.16
80124;BME280;69433;48.642;9.142;2023-06-01T03:26:51;97100.78;;;21.42;35.26
80124;BME280;69433;48.642;9.142;2023-06-01T03:29:20;97102.69;;;21.42;35.09
80124;BME280;69433;48.642;9.142;2023-06-01T03:31:46;97105.00;;;21.40;35.47
80124;BME280;69433;48.642;9.142;2023-06-01T03:34:12;97100.34;;;21.51;35.41
80124;BME280;69433;48.642;9.142;2023-06-01T03:36:38;97099.88;;;21.60;35.49
80124;BME280;69433;48.642;9.142;2023-06-01T03:39:03;97102.13;;;21.68;35.12
80124;BME280;69433;48.642;9.142;2023-06-01T03:41:34;97102.06;;;21.75;34.94
80124;BME280;69433;48.642;9.142;2023-06-01T03:43:59;97097.84;;;21.78;35.01
80124;BME280;69433;48.642;9.142;2023-06-01T03:46:25;97113.53;;;21.72;34.72
80124;BME280;69433;48.642;9.142;2023-06-01T03:48:50;97105.88;;;21.78;34.92
80124;BME280;69433;48.642;9.142;2023-06-01T03:51:19;97112.75;;;21.79;34.55
80124;BME280;69433;48.642;9.142;2023-06-01T03:53:45;97106.25;;;21.73;34.78
80124;BME280;69433;48.642;9.142;2023-06-01T03:56:10;97115.03;;;21.77;34.71
80124;BME280;69433;48.642;9.142;2023-06-01T03:58:36;97113.13;;;21.81;34.72
80124;BME280;69433;48.642;9.142;2023-06-01T04:01:01;97109.25;;;21.82;34.39
80124;BME280;69433;48.642;9.142;2023-06-01T04:03:27;97113.13;;;21.77;34.55
80124;BME280;69433;48.642;9.142;2023-06-01T04:05:52;97114.97;;;21.84;34.64
80124;BME280;69433;48.642;9.142;2023-06-01T04:08:24;97111.91;;;21.89;34.23
80124;BME280;69433;48.642;9.142;2023-06-01T04:10:50;97122.59;;;21.89;34.31
80124;BME280;69433;48.642;9.142;2023-06-01T04:13:15;97119.19;;;21.85;34.24
80124;BME280;69433;48.642;9.142;2023-06-01T04:15:40;97121.94;;;21.74;34.32
80124;BME280;69433;48.642;9.142;2023-06-01T04:18:06;97116.13;;;21.83;34.34
80124;BME280;69433;48.642;9.142;2023-06-01T04:20:31;97117.28;;;21.82;34.40
80124;BME280;69433;48.642;9.142;2023-06-01T04:22:57;97125.28;;;21.89;34.50
80124;BME280;69433;48.642;9.142;2023-06-01T04:25:23;97124.56;;;21.81;34.28
80124;BME280;69433;48.642;9.142;2023-06-01T04:27:49;97130.03;;;21.64;34.93
80124;BME280;69433;48.642;9.142;2023-06-01T04:30:16;97133.47;;;21.68;34.91
80124;BME280;69433;48.642;9.142;2023-06-01T04:32:42;97128.06;;;21.75;34.75
80124;BME280;69433;48.642;9.142;2023-06-01T04:35:10;97138.34;;;21.80;34.86
80124;BME280;69433;48.642;9.142;2023-06-01T04:37:37;97136.13;;;21.71;34.61
80124;BME280;69433;48.642;9.142;2023-06-01T04:40:05;97138.75;;;21.75;34.53
80124;BME280;69433;48.642;9.142;2023-06-01T04:42:33;97134.59;;;21.70;35.02
80124;BME280;69433;48.642;9.142;2023-06-01T04:45:00;97133.06;;;21.69;34.93
80124;BME280;69433;48.642;9.142;2023-06-01T04:47:26;97133.06;;;21.69;34.97
80124;BME280;69433;48.642;9.142;2023-06-01T04:49:53;97133.75;;;21.80;34.68
80124;BME280;69433;48.642;9.142;2023-06-01T04:52:18;97139.41;;;21.90;34.59
80124;BME280;69433;48.642;9.142;2023-06-01T04:54:45;97135.53;;;21.94;34.61
80124;BME280;69433;48.642;9.142;2023-06-01T04:57:11;97141.69;;;21.98;34.40
80124;BME280;69433;48.642;9.142;2023-06-01T04:59:40;97134.78;;;21.94;34.59
80124;BME280;69433;48.642;9.142;2023-06-01T05:02:05;97142.03;;;22.00;34.61
80124;BME280;69433;48.642;9.142;2023-06-01T05:04:30;97141.25;;;22.03;34.67
80124;BME280;69433;48.642;9.142;2023-06-01T05:06:59;97136.19;;;22.12;34.59
80124;BME280;69433;48.642;9.142;2023-06-01T05:09:24;97138.09;;;22.15;34.29
80124;BME280;69433;48.642;9.142;2023-06-01T05:11:50;97143.00;;;22.20;34.28
80124;BME280;69433;48.642;9.142;2023-06-01T05:14:24;97144.13;;;22.23;34.35
80124;BME280;69433;48.642;9.142;2023-06-01T05:16:50;97142.94;;;22.28;34.11
80124;BME280;69433;48.642;9.142;2023-06-01T05:19:15;97144.47;;;22.29;34.17
80124;BME280;69433;48.642;9.142;2023-06-01T05:21:42;97139.47;;;22.31;34.08
80124;BME280;69433;48.642;9.142;2023-06-01T05:24:08;97135.59;;;22.35;33.87
80124;BME280;69433;48.642;9.142;2023-06-01T05:26:43;97133.25;;;22.41;33.96
80124;BME280;69433;48.642;9.142;2023-06-01T05:29:08;97130.94;;;22.43;33.89
80124;BME280;69433;48.642;9.142;2023-06-01T05:31:33;97134.75;;;22.45;33.85
80124;BME280;69433;48.642;9.142;2023-06-01T05:33:59;97128.22;;;22.46;33.83
80124;BME280;69433;48.642;9.142;2023-06-01T05:36:25;97130.09;;;22.49;33.87
80124;BME280;69433;48.642;9.142;2023-06-01T05:38:50;97127.38;;;22.53;33.80
80124;BME280;69433;48.642;9.142;2023-06-01T05:41:16;97133.47;;;22.57;33.71
80124;BME280;69433;48.642;9.142;2023-06-01T05:43:41;97127.31;;;22.60;33.83
80124;BME280;69433;48.642;9.142;2023-06-01T05:46:06;97134.19;;;22.61;33.63
80124;BME280;69433;48.642;9.142;2023-06-01T05:48:32;97133.78;;;22.63;33.80
80124;BME280;69433;48.642;9.142;2023-06-01T05:50:57;97132.63;;;22.64;33.95
80124;BME280;69433;48.642;9.142;2023-06-01T05:53:22;97132.63;;;22.64;33.83
80124;BME280;69433;48.642;9.142;2023-06-01T05:55:51;97136.84;;;22.65;33.94
80124;BME280;69433;48.642;9.142;2023-06-01T05:58:16;97138.66;;;22.75;33.71
80124;BME280;69433;48.642;9.142;2023-06-01T06:00:41;97138.53;;;22.85;33.65
80124;BME280;69433;48.642;9.142;2023-06-01T06:03:09;97141.91;;;22.93;33.66
80124;BME280;69433;48.642;9.142;2023-06-01T06:05:34;97142.56;;;23.01;33.52
80124;BME280;69433;48.642;9.142;2023-06-01T06:08:00;97144.81;;;23.06;33.51
80124;BME280;69433;48.642;9.142;2023-06-01T06:10:26;97143.97;;;23.12;33.46
80124;BME280;69433;48.642;9.142;2023-06-01T06:12:51;97145.09;;;23.15;33.57
80124;BME280;69433;48.642;9.142;2023-06-01T06:15:17;97149.97;;;23.20;33.71
80124;BME280;69433;48.642;9.142;2023-06-01T06:17:42;97146.50;;;23.23;33.69
80124;BME280;69433;48.642;9.142;2023-06-01T06:20:08;97150.25;;;23.29;33.61
80124;BME280;69433;48.642;9.142;2023-06-01T06:22:34;97152.09;;;23.36;33.55
80124;BME280;69433;48.642;9.142;2023-06-01T06:25:12;97145.47;;;23.44;33.58
80124;BME280;69433;48.642;9.142;2023-06-01T06:27:37;97141.94;;;23.50;33.41
80124;BME280;69433;48.642;9.142;2023-06-01T06:30:03;97144.16;;;23.55;33.45
80124;BME280;69433;48.642;9.142;2023-06-01T06:32:28;97152.53;;;23.61;33.43
80124;BME280;69433;48.642;9.142;2023-06-01T06:34:53;97144.75;;;23.66;33.16
80124;BME280;69433;48.642;9.142;2023-06-01T06:37:19;97138.97;;;23.72;33.21
80124;BME280;69433;48.642;9.142;2023-06-01T06:39:44;97145.78;;;23.76;33.32
80124;BME280;69433;48.642;9.142;2023-06-01T06:42:10;97148.78;;;23.82;33.34
80124;BME280;69433;48.642;9.142;2023-06-01T06:44:35;97148.28;;;23.87;33.11
80124;BME280;69433;48.642;9.142;2023-06-01T06:47:00;97155.16;;;23.91;33.04
80124;BME280;69433;48.642;9.142;2023-06-01T06:49:26;97147.38;;;23.97;33.12
80124;BME280;69433;48.642;9.142;2023-06-01T06:51:51;97142.72;;;24.01;33.05
80124;BME280;69433;48.642;9.142;2023-06-01T06:54:16;97138.78;;;24.05;33.11
80124;BME280;69433;48.642;9.142;2023-06-01T06:56:42;97142.94;;;24.10;32.87
80124;BME280;69433;48.642;9.142;2023-06-01T06:59:08;97143.22;;;24.16;32.95
80124;BME280;69433;48.642;9.142;2023-06-01T07:01:41;97137.81;;;24.19;33.16
80124;BME280;69433;48.642;9.142;2023-06-01T07:04:07;97144.66;;;24.24;33.15
80124;BME280;69433;48.642;9.142;2023-06-01T07:06:33;97140.38;;;24.26;33.30
80124;BME280;69433;48.642;9.142;2023-06-01T07:08:59;97140.75;;;24.28;32.94
80124;BME280;69433;48.642;9.142;2023-06-01T07:11:24;97142.19;;;24.33;33.20
80124;BME280;69433;48.642;9.142;2023-06-01T07:14:00;97150.59;;;24.35;32.93
80124;BME280;69433;48.642;9.142;2023-06-01T07:16:25;97144.41;;;24.38;32.90
80124;BME280;69433;48.642;9.142;2023-06-01T07:18:51;97152.41;;;24.41;33.15
80124;BME280;69433;48.642;9.142;2023-06-01T07:21:17;97146.63;;;24.43;32.82
80124;BME280;69433;48.642;9.142;2023-06-01T07:23:42;97141.59;;;24.45;32.82
80124;BME280;69433;48.642;9.142;2023-06-01T07:26:10;97148.84;;;24.48;32.81
80124;BME280;69433;48.642;9.142;2023-06-01T07:28:36;97140.38;;;24.50;32.80
80124;BME280;69433;48.642;9.142;2023-06-01T07:31:03;97143.81;;;24.50;32.94
80124;BME280;69433;48.642;9.142;2023-06-01T07:33:28;97143.38;;;24.52;32.83
80124;BME280;69433;48.642;9.142;2023-06-01T07:35:54;97144.09;;;24.56;32.77
80124;BME280;69433;48.642;9.142;2023-06-01T07:38:20;97140.59;;;24.59;32.77
80124;BME280;69433;48.642;9.142;2023-06-01T07:40:46;97135.53;;;24.61;32.82
80124;BME280;69433;48.642;9.142;2023-06-01T07:43:11;97137.06;;;24.62;32.85
80124;BME280;69433;48.642;9.142;2023-06-01T07:45:36;97136.66;;;24.63;32.99
80124;BME280;69433;48.642;9.142;2023-06-01T07:48:01;97141.63;;;24.65;32.79
80124;BME280;69433;48.642;9.142;2023-06-01T07:50:27;97131.22;;;24.67;33.06
80124;BME280;69433;48.642;9.142;2023-06-01T07:52:56;97130.41;;;24.70;32.75
80124;BME280;69433;48.642;9.142;2023-06-01T07:55:22;97137.63;;;24.73;32.98
80124;BME280;69433;48.642;9.142;2023-06-01T07:57:47;97136.44;;;24.74;32.74
80124;BME280;69433;48.642;9.142;2023-06-01T08:00:14;97138.31;;;24.77;32.94
80124;BME280;69433;48.642;9.142;2023-06-01T08:02:45;97135.22;;;24.78;32.72
80124;BME280;69433;48.642;9.142;2023-06-01T08:05:11;97136.75;;;24.80;32.67
80124;BME280;69433;48.642;9.142;2023-06-01T08:07:38;97142.44;;;24.82;32.78
80124;BME280;69433;48.642;9.142;2023-06-01T08:10:06;97136.66;;;24.83;33.01
80124;BME280;69433;48.642;9.142;2023-06-01T08:12:33;97142.38;;;24.85;32.83
80124;BME280;69433;48.642;9.142;2023-06-01T08:14:59;97135.84;;;24.86;33.09
80124;BME280;69433;48.642;9.142;2023-06-01T08:17:24;97129.63;;;24.89;32.94
80124;BME280;69433;48.642;9.142;2023-06-01T08:19:50;97131.13;;;24.90;33.08
80124;BME280;69433;48.642;9.142;2023-06-01T08:22:16;97128.06;;;24.92;33.15
80124;BME280;69433;48.642;9.142;2023-06-01T08:24:41;97135.28;;;24.95;33.23
80124;BME280;69433;48.642;9.142;2023-06-01T08:27:21;97130.34;;;24.93;33.17
80124;BME280;69433;48.642;9.142;2023-06-01T08:29:47;97126.88;;;24.93;33.23
80124;BME280;69433;48.642;9.142;2023-06-01T08:32:14;97128.00;;;24.95;33.33
80124;BME280;69433;48.642;9.142;2023-06-01T08:34:40;97126.06;;;24.96;33.09
80124;BME280;69433;48.642;9.142;2023-06-01T08:37:06;97124.03;;;25.00;33.29
80124;BME280;69433;48.642;9.142;2023-06-01T08:39:31;97125.16;;;25.02;33.52
80124;BME280;69433;48.642;9.142;2023-06-01T08:42:06;97121.97;;;25.07;34.18
80124;BME280;69433;48.642;9.142;2023-06-01T08:44:36;97119.97;;;25.11;35.17
80124;BME280;69433;48.642;9.142;2023-06-01T08:47:10;97118.31;;;25.18;35.26
80124;BME280;69433;48.642;9.142;2023-06-01T08:49:36;97109.38;;;25.21;35.00
80124;BME280;69433;48.642;9.142;2023-06-01T08:52:11;97113.94;;;25.24;35.00
80124;BME280;69433;48.642;9.142;2023-06-01T08:54:38;97125.06;;;25.26;34.90
80124;BME280;69433;48.642;9.142;2023-06-01T08:57:05;97114.28;;;25.26;34.65
80124;BME280;69433;48.642;9.142;2023-06-01T08:59:33;97119.25;;;25.27;34.37
80124;BME280;69433;48.642;9.142;2023-06-01T09:01:59;97118.81;;;25.29;34.29
80124;BME280;69433;48.642;9.142;2023-06-01T09:04:26;97114.94;;;25.30;34.26
80124;BME280;69433;48.642;9.142;2023-06-01T09:06:51;97116.47;;;25.31;34.34
80124;BME280;69433;48.642;9.142;2023-06-01T09:09:17;97120.28;;;25.33;34.25
80124;BME280;69433;48.642;9.142;2023-06-01T09:11:43;97116.81;;;25.33;34.21
80124;BME280;69433;48.642;9.142;2023-06-01T09:14:22;97109.09;;;25.35;34.07
80124;BME280;69433;48.642;9.142;2023-06-01T09:16:48;97116.00;;;25.36;34.11
80124;BME280;69433;48.642;9.142;2023-06-01T09:19:14;97107.91;;;25.36;34.44
80124;BME280;69433;48.642;9.142;2023-06-01T09:21:39;97113.97;;;25.40;34.30
80124;BME280;69433;48.642;9.142;2023-06-01T09:24:30;97121.63;;;25.41;34.39
80124;BME280;69433;48.642;9.142;2023-06-01T09:26:59;97117.41;;;25.40;33.98
80124;BME280;69433;48.642;9.142;2023-06-01T09:29:28;97121.22;;;25.43;33.97
80124;BME280;69433;48.642;9.142;2023-06-01T09:31:54;97110.84;;;25.41;34.22
80124;BME280;69433;48.642;9.142;2023-06-01T09:34:20;97115.81;;;25.43;33.97
80124;BME280;69433;48.642;9.142;2023-06-01T09:36:53;97111.63;;;25.42;34.17
80124;BME280;69433;48.642;9.142;2023-06-01T09:39:24;97114.31;;;25.42;33.91
80124;BME280;69433;48.642;9.142;2023-06-01T09:41:57;97116.16;;;25.45;34.21
80124;BME280;69433;48.642;9.142;2023-06-01T09:44:41;97113.06;;;25.46;34.34
80124;BME280;69433;48.642;9.142;2023-06-01T09:47:08;97107.25;;;25.48;34.34
80124;BME280;69433;48.642;9.142;2023-06-01T09:49:39;97101.44;;;25.49;34.12
80124;BME280;69433;48.642;9.142;2023-06-01T09:54:32;97100.59;;;25.52;34.24
80124;BME280;69433;48.642;9.142;2023-06-01T09:56:59;97099.03;;;25.55;34.39
80124;BME280;69433;48.642;9.142;2023-06-01T09:59:25;97094.41;;;25.56;34.22
80124;BME280;69433;48.642;9.142;2023-06-01T10:01:54;97092.03;;;25.58;34.61
80124;BME280;69433;48.642;9.142;2023-06-01T10:04:22;97088.16;;;25.59;34.55
80124;BME280;69433;48.642;9.142;2023-06-01T10:06:49;97091.59;;;25.59;34.64
80124;BME280;69433;48.642;9.142;2023-06-01T10:09:25;97086.59;;;25.61;34.33
80124;BME280;69433;48.642;9.142;2023-06-01T10:11:52;97084.25;;;25.63;34.66
80124;BME280;69433;48.642;9.142;2023-06-01T10:14:20;97089.63;;;25.63;34.28
80124;BME280;69433;48.642;9.142;2023-06-01T10:16:45;97093.84;;;25.64;34.82
80124;BME280;69433;48.642;9.142;2023-06-01T10:19:13;97079.50;;;25.67;34.98
80124;BME280;69433;48.642;9.142;2023-06-01T10:21:38;97077.50;;;25.71;35.31
80124;BME280;69433;48.642;9.142;2023-06-01T10:24:06;97075.50;;;25.75;35.09
80124;BME280;69433;48.642;9.142;2023-06-01T10:27:16;97082.38;;;25.76;35.61
80124;BME280;69433;48.642;9.142;2023-06-01T10:29:44;97078.50;;;25.77;35.72
80124;BME280;69433;48.642;9.142;2023-06-01T10:32:46;97080.69;;;25.82;35.88
80124;BME280;69433;48.642;9.142;2023-06-01T10:40:33;97075.97;;;25.86;35.88
80124;BME280;69433;48.642;9.142;2023-06-01T10:42:58;97076.31;;;25.88;35.79
80124;BME280;69433;48.642;9.142;2023-06-01T10:45:37;97063.59;;;25.89;36.43
80124;BME280;69433;48.642;9.142;2023-06-01T10:48:08;97067.38;;;25.92;35.98
80124;BME280;69433;48.642;9.142;2023-06-01T10:50:40;97053.50;;;25.93;36.23
80124;BME280;69433;48.642;9.142;2023-06-01T10:53:31;97063.84;;;25.95;36.48
80124;BME280;69433;48.642;9.142;2023-06-01T10:56:25;97063.84;;;25.95;36.35
80124;BME280;69433;48.642;9.142;2023-06-01T10:59:11;97070.41;;;25.94;36.18
80124;BME280;69433;48.642;9.142;2023-06-01T11:01:38;97064.28;;;25.93;36.08
80124;BME280;69433;48.642;9.142;2023-06-01T11:04:04;97055.00;;;25.94;36.17
80124;BME280;69433;48.642;9.142;2023-06-01T11:06:32;97054.25;;;25.94;36.35
80124;BME280;69433;48.642;9.142;2023-06-01T11:09:00;97051.97;;;25.92;35.98
80124;BME280;69433;48.642;9.142;2023-06-01T11:14:14;97058.53;;;25.91;36.10
80124;BME280;69433;48.642;9.142;2023-06-01T11:16:41;97057.78;;;25.91;36.12
80124;BME280;69433;48.642;9.142;2023-06-01T11:19:07;97044.66;;;25.93;36.33
80124;BME280;69433;48.642;9.142;2023-06-01T11:21:43;97050.38;;;25.95;36.33
80124;BME280;69433;48.642;9.142;2023-06-01T11:24:17;97047.69;;;25.95;36.15
80124;BME280;69433;48.642;9.142;2023-06-01T11:26:44;97047.69;;;25.95;36.21
80124;BME280;69433;48.642;9.142;2023-06-01T11:29:21;97039.16;;;25.96;36.00
80124;BME280;69433;48.642;9.142;2023-06-01T11:31:53;97031.84;;;25.97;36.14
80124;BME280;69433;48.642;9.142;2023-06-01T11:34:24;97037.75;;;25.92;36.49
80124;BME280;69433;48.642;9.142;2023-06-01T11:36:50;97036.66;;;25.89;35.95
80124;BME280;69433;48.642;9.142;2023-06-01T11:39:23;97037.50;;;25.86;35.77
80124;BME280;69433;48.642;9.142;2023-06-01T11:41:51;97040.78;;;25.77;35.62
80124;BME280;69433;48.642;9.142;2023-06-01T11:44:18;97032.97;;;25.67;35.92
80124;BME280;69433;48.642;9.142;2023-06-01T11:46:55;97029.03;;;25.71;36.69
80124;BME280;69433;48.642;9.142;2023-06-01T11:49:21;97020.44;;;25.76;37.62
80124;BME280;69433;48.642;9.142;2023-06-01T11:51:47;97014.63;;;25.78;37.14
80124;BME280;69433;48.642;9.142;2023-06-01T11:54:13;97015.38;;;25.78;37.04
80124;BME280;69433;48.642;9.142;2023-06-01T11:56:39;97007.72;;;25.77;38.32
80124;BME280;69433;48.642;9.142;2023-06-01T11:59:05;97017.72;;;25.76;37.11
80124;BME280;69433;48.642;9.142;2023-06-01T12:01:45;97010.53;;;25.73;36.66
80124;BME280;69433;48.642;9.142;2023-06-01T12:04:23;97007.91;;;25.70;37.05
80124;BME280;69433;48.642;9.142;2023-06-01T12:06:50;97004.56;;;25.66;38.42
80124;BME280;69433;48.642;9.142;2023-06-01T12:09:16;97019.63;;;25.63;38.29
80124;BME280;69433;48.642;9.142;2023-06-01T12:11:43;97007.34;;;25.62;37.18
80124;BME280;69433;48.642;9.142;2023-06-01T12:14:12;97003.47;;;25.63;37.87
80124;BME280;69433;48.642;9.142;2023-06-01T12:16:54;97000.44;;;25.61;36.60
80124;BME280;69433;48.642;9.142;2023-06-01T12:19:23;97001.94;;;25.62;36.66
80124;BME280;69433;48.642;9.142;2023-06-01T12:21:53;97001.88;;;25.66;36.59
80124;BME280;69433;48.642;9.142;2023-06-01T12:24:30;96993.78;;;25.66;36.36
80124;BME280;69433;48.642;9.142;2023-06-01T12:26:58;96988.41;;;25.66;36.74
80124;BME280;69433;48.642;9.142;2023-06-01T12:29:41;96986.78;;;25.68;36.49
80124;BME280;69433;48.642;9.142;2023-06-01T12:32:10;96988.31;;;25.69;36.69
80124;BME280;69433;48.642;9.142;2023-06-01T12:34:36;96994.03;;;25.71;36.95
80124;BME280;69433;48.642;9.142;2023-06-01T12:37:15;96977.88;;;25.71;36.53
80124;BME280;69433;48.642;9.142;2023-06-01T12:39:41;96984.00;;;25.72;36.86
80124;BME280;69433;48.642;9.142;2023-06-01T12:42:07;96980.56;;;25.71;37.94
80124;BME280;69433;48.642;9.142;2023-06-01T12:44:33;96984.00;;;25.72;37.12
80124;BME280;69433;48.642;9.142;2023-06-01T12:46:59;96978.22;;;25.73;36.66
80124;BME280;69433;48.642;9.142;2023-06-01T12:49:26;96978.22;;;25.73;36.59
80124;BME280;69433;48.642;9.142;2023-06-01T12:51:51;96970.13;;;25.73;36.39
80124;BME280;69433;48.642;9.142;2023-06-01T12:54:24;96974.66;;;25.76;37.00
80124;BME280;69433;48.642;9.142;2023-06-01T12:56:50;96970.13;;;25.73;36.71
80124;BME280;69433;48.642;9.142;2023-06-01T12:59:16;96969.38;;;25.73;36.25
80124;BME280;69433;48.642;9.142;2023-06-01T13:01:42;96968.53;;;25.76;37.21
80124;BME280;69433;48.642;9.142;2023-06-01T13:04:07;96960.88;;;25.74;36.38
80124;BME280;69433;48.642;9.142;2023-06-01T13:06:33;96960.13;;;25.74;36.31
80124;BME280;69433;48.642;9.142;2023-06-01T13:08:59;96955.16;;;25.72;37.06
80124;BME280;69433;48.642;9.142;2023-06-01T13:11:25;96960.97;;;25.71;37.63
80124;BME280;69433;48.642;9.142;2023-06-01T13:13:56;96960.19;;;25.70;37.16
80124;BME280;69433;48.642;9.142;2023-06-01T13:16:22;96953.28;;;25.69;38.16
80124;BME280;69433;48.642;9.142;2023-06-01T13:18:47;96967.19;;;25.68;37.66